Charter Quote
Worldwide +44-20-3874-8091 Call
Select Language Lang
SAFETY RELIABILITY EXPERIENCE

Lake County Airport (KLXV) - Jet Charter Services

AIRPORT INFORMATION
ICAOKLXV
IATALXV
LOCATIONLeadville, CO, United States
FACILITY TYPEAIRPORT

At Paramount Business Jets you can hire chartered private jets to and from Lake County Airport with as little as 4 hours of notice. All flights booked via Paramount Business Jets are operated by certified direct air carriers that meet and exceed the FAA part 135 and 121 protocol or a foreign equivalent safety authority. Furthermore, Paramount Business Jets subscribes to ARGUS for their third party safety checks of operators, aircraft, and crews prior each and every flight to and from Lake County Airport and worldwide.

  • Quote a trip using Lake County Airport or call us 24/7 - 365 days a year at +44-20-3874-8091.
Questions? Call +44-20-3874-8091

METAR Weather Data at Lake County Airport, KLXV, LXV

STATIONKLXV
OBSERVEDFri Mar 22, 22:53 UTC
NOWFri Mar 22, 23:19 UTC
AGE26 min ago
WINDN at 15 mph, gusting to 24 mph
VISIBILITY10 miles
CLOUDSmostly cloudy
TEMP27°F (-3°C)
WIND CHILL15°F (-9°C)
DEWPT18°F (-8°C)
HUMIDITY69%
BAROMETER1015 hPa (29.96 in Hg)
METARKLXV 222253Z AUTO 35013G21KT 10SM SCT046 SCT055 BKN075 M03/M08 A2996 RMK AO2 SLP106 T10281083

Call us on +44-20-3874-8091 (24 Hours) to Hire a Private Jet or Get a Quick Quote.

Find Airports Near any Location

Processing
...